Terminal Aerodrome Forecast
Issued by NWS Paducah, KY

Home | Current Version | Previous Version | Text Only | Print | Product List | Glossary On
Versions: 1 2 3 4 5 6 7 8 9 10 11 12 13 14 15 16
000
FTUS43 KPAH 181700
TAFPAH
TAF
KPAH 181720Z 1818/1918 34008G18KT P6SM SCT040
      TEMPO 1818/1822 BKN040
     FM190000 36003KT P6SM SCT040
     FM190600 00000KT 4SM BR SKC
     FM191400 VRB03KT P6SM SKC=

USA.gov is the U.S. government's official web portal to all federal, state and local government web resources and services.